This is the latest recevied weather packets stored in our database for station/object DL8TF-13. If no packets are shown the sender has not sent any weather packets the latest 10 day(s).
| Time | Temp. | Humidity | Pressure | Rain* | Wind** | Luminosity | Snow |
|---|---|---|---|---|---|---|---|
| 1777612408 | 6.11° C | 56% | 994 hPa | - | - | - | - |
| 1777611808 | 5.56° C | 57% | 994 hPa | - | - | - | - |
| 1777611208 | 5° C | 58% | 994 hPa | - | - | - | - |
| 1777610608 | 5° C | 57% | 994 hPa | - | - | - | - |
| 1777610008 | 5.56° C | 55% | 994 hPa | - | - | - | - |
| 1777609408 | 5.56° C | 54% | 994 hPa | - | - | - | - |
| 1777608807 | 5.56° C | 56% | 994 hPa | - | - | - | - |
| 1777608207 | 5.56° C | 54% | 994 hPa | - | - | - | - |
| 1777607607 | 6.11° C | 52% | 994 hPa | - | - | - | - |
| 1777607007 | 6.11° C | 53% | 994 hPa | - | - | - | - |
| 1777606407 | 6.11° C | 52% | 994 hPa | - | - | - | - |
| 1777605807 | 6.11° C | 52% | 994 hPa | - | - | - | - |
| 1777605207 | 6.11° C | 52% | 994 hPa | - | - | - | - |
| 1777604607 | 6.67° C | 51% | 994 hPa | - | - | - | - |
| 1777604007 | 6.67° C | 50% | 994 hPa | - | - | - | - |
| 1777603407 | 6.67° C | 50% | 994 hPa | - | - | - | - |
| 1777602807 | 6.67° C | 49% | 994 hPa | - | - | - | - |
| 1777602207 | 7.22° C | 48% | 994 hPa | - | - | - | - |
| 1777601607 | 7.22° C | 47% | 994 hPa | - | - | - | - |
| 1777601007 | 7.22° C | 47% | 994 hPa | - | - | - | - |
| 1777600407 | 7.22° C | 46% | 994 hPa | - | - | - | - |
| 1777581805 | 11.11° C | 39% | 994 hPa | - | - | - | - |
| 1777581205 | 11.67° C | 38% | 994 hPa | - | - | - | - |
| 1777580005 | 11.67° C | 37% | 994 hPa | - | - | - | - |
| 1777579405 | 12.22° C | 37% | 994 hPa | - | - | - | - |
* Rain since midnight (hover to see other rain measurements)
** Current wind speed in m/s (hover to see current wind gust speed)